Time,TemperatureF,DewpointF,PressureIn,WindDirection,WindDirectionDegrees,WindSpeedMPH,WindSpeedGustMPH,Humidity,HourlyPrecipIn,Conditions,Clouds,dailyrainin,SoftwareType,DateUTC
2013-03-26 00:00:00,32.4,32.4,28.56,NW,315,4.6,4.6,100,0.00,,SKC,0.39,WeatherDisplay:10.37,2013-03-26 04:00:00,
2013-03-26 00:01:00,32.4,32.4,28.56,NW,315,4.6,4.6,100,0.00,RA,SKC,0.00,WeatherDisplay:10.37,2013-03-26 04:01:00,
2013-03-26 00:02:00,32.4,32.4,28.56,NW,315,3.5,3.5,100,0.00,RA,SKC,0.00,WeatherDisplay:10.37,2013-03-26 04:02:00,
2013-03-26 00:07:00,32.4,32.4,28.56,NW,315,3.5,3.5,100,0.00,RA,SKC,0.00,WeatherDisplay:10.37,2013-03-26 04:07:00,
2013-03-26 00:12:00,32.4,32.4,28.56,NW,315,2.3,2.3,100,0.00,,SKC,0.00,WeatherDisplay:10.37,2013-03-26 04:12:00,
2013-03-26 00:17:00,32.4,32.4,28.56,NW,315,3.5,3.5,100,0.00,,SKC,0.00,WeatherDisplay:10.37,2013-03-26 04:17:00,
2013-03-26 00:23:00,32.4,32.4,28.57,NW,315,3.5,3.5,100,0.00,,SKC,0.00,WeatherDisplay:10.37,2013-03-26 04:23:00,
2013-03-26 00:28:00,32.4,32.4,28.56,NW,315,3.5,3.5,100,0.00,,SKC,0.00,WeatherDisplay:10.37,2013-03-26 04:28:00,
2013-03-26 00:33:00,32.4,32.4,28.57,North,0,3.5,3.5,100,0.00,,SKC,0.00,WeatherDisplay:10.37,2013-03-26 04:33:00,
2013-03-26 00:38:00,32.4,32.4,28.57,NW,315,3.5,3.5,100,0.00,,SKC,0.00,WeatherDisplay:10.37,2013-03-26 04:38:00,
2013-03-26 00:43:00,32.4,32.4,28.57,NNE,14,3.5,3.5,100,0.00,,SKC,0.00,WeatherDisplay:10.37,2013-03-26 04:43:00,
2013-03-26 00:48:00,32.4,32.4,28.58,NNE,14,3.5,3.5,100,0.00,,SKC,0.00,WeatherDisplay:10.37,2013-03-26 04:48:00,
2013-03-26 00:53:00,32.4,32.4,28.58,NNE,14,3.5,3.5,100,0.00,,SKC,0.00,WeatherDisplay:10.37,2013-03-26 04:53:00,
2013-03-26 00:58:00,32.4,32.4,28.58,North,0,0.0,0.0,100,0.00,,SKC,0.00,WeatherDisplay:10.37,2013-03-26 04:58:00,
2013-03-26 01:03:00,32.4,32.4,28.58,NW,315,3.5,3.5,100,0.00,,SKC,0.00,WeatherDisplay:10.37,2013-03-26 05:03:00,
2013-03-26 01:08:00,32.2,32.2,28.58,NNE,14,3.5,3.5,100,0.00,,SKC,0.00,WeatherDisplay:10.37,2013-03-26 05:08:00,
2013-03-26 01:13:00,32.4,32.4,28.58,NW,315,3.5,3.5,100,0.00,,SKC,0.00,WeatherDisplay:10.37,2013-03-26 05:13:00,
2013-03-26 01:18:00,32.4,32.4,28.58,North,1,3.5,3.5,100,0.00,,SKC,0.00,WeatherDisplay:10.37,2013-03-26 05:18:00,
2013-03-26 01:23:00,32.4,32.4,28.58,North,0,4.6,4.6,100,0.00,,SKC,0.00,WeatherDisplay:10.37,2013-03-26 05:23:00,
2013-03-26 01:28:00,32.4,32.4,28.58,North,0,4.6,4.6,100,0.00,,SKC,0.00,WeatherDisplay:10.37,2013-03-26 05:28:00,
2013-03-26 01:33:00,32.4,32.4,28.58,NW,315,3.5,3.5,100,0.00,,SKC,0.00,WeatherDisplay:10.37,2013-03-26 05:33:00,
2013-03-26 01:38:00,32.4,32.4,28.58,NW,315,4.6,4.6,100,0.00,,SKC,0.00,WeatherDisplay:10.37,2013-03-26 05:38:00,
2013-03-26 01:43:00,32.2,32.2,28.59,North,0,2.3,2.3,100,0.00,,SKC,0.00,WeatherDisplay:10.37,2013-03-26 05:43:00,
2013-03-26 01:48:00,32.2,32.2,28.58,North,0,5.8,5.8,100,0.00,,SKC,0.00,WeatherDisplay:10.37,2013-03-26 05:48:00,
2013-03-26 01:53:00,32.2,32.2,28.59,North,0,3.5,3.5,100,0.00,,SKC,0.00,WeatherDisplay:10.37,2013-03-26 05:53:00,
2013-03-26 01:58:00,32.2,32.2,28.59,North,0,3.5,3.5,100,0.00,,SKC,0.00,WeatherDisplay:10.37,2013-03-26 05:58:00,
2013-03-26 02:03:00,32.2,32.2,28.59,North,0,3.5,3.5,100,0.00,,SKC,0.00,WeatherDisplay:10.37,2013-03-26 06:03:00,
2013-03-26 02:08:00,32.2,32.2,28.59,North,0,3.5,3.5,100,0.00,,SKC,0.00,WeatherDisplay:10.37,2013-03-26 06:08:00,
2013-03-26 02:13:00,32.2,32.2,28.59,North,0,3.5,3.5,100,0.00,,SKC,0.00,WeatherDisplay:10.37,2013-03-26 06:13:00,
2013-03-26 02:18:00,32.2,32.2,28.60,North,0,6.9,6.9,100,0.00,,SKC,0.00,WeatherDisplay:10.37,2013-03-26 06:18:00,
2013-03-26 02:24:00,32.2,32.2,28.60,North,0,5.8,5.8,100,0.00,,SKC,0.00,WeatherDisplay:10.37,2013-03-26 06:24:00,
2013-03-26 02:29:00,32.2,32.2,28.60,North,0,4.6,4.6,100,0.00,,SKC,0.00,WeatherDisplay:10.37,2013-03-26 06:29:00,
2013-03-26 02:34:00,32.2,32.2,28.60,North,0,4.6,4.6,100,0.00,,SKC,0.00,WeatherDisplay:10.37,2013-03-26 06:34:00,
2013-03-26 02:39:00,32.2,32.2,28.60,North,0,3.5,3.5,100,0.00,,SKC,0.00,WeatherDisplay:10.37,2013-03-26 06:39:00,
2013-03-26 02:44:00,32.2,32.2,28.60,North,0,5.8,5.8,100,0.00,,SKC,0.00,WeatherDisplay:10.37,2013-03-26 06:44:00,
2013-03-26 02:49:00,32.0,32.0,28.60,North,0,4.6,4.6,100,0.00,,SKC,0.00,WeatherDisplay:10.37,2013-03-26 06:49:00,
2013-03-26 02:54:00,32.0,32.0,28.61,North,0,6.9,6.9,100,0.00,,SKC,0.00,WeatherDisplay:10.37,2013-03-26 06:54:00,
2013-03-26 02:59:00,32.0,32.0,28.61,North,0,5.8,5.8,100,0.00,,SKC,0.00,WeatherDisplay:10.37,2013-03-26 06:59:00,
2013-03-26 03:04:00,32.0,32.0,28.61,North,0,4.6,4.6,100,0.00,,SKC,0.00,WeatherDisplay:10.37,2013-03-26 07:04:00,
2013-03-26 03:09:00,32.2,32.2,28.61,North,0,3.5,0.0,100,0.00,,SKC,0.00,WeatherDisplay:10.37,2013-03-26 07:09:00,
2013-03-26 03:14:00,32.2,32.2,28.61,North,0,5.8,5.8,100,0.00,,SKC,0.00,WeatherDisplay:10.37,2013-03-26 07:14:00,
2013-03-26 03:20:00,32.2,32.2,28.61,North,0,3.5,3.5,100,0.00,,SKC,0.00,WeatherDisplay:10.37,2013-03-26 07:20:00,
2013-03-26 03:25:00,32.0,32.0,28.61,North,0,3.5,3.5,100,0.00,,SKC,0.00,WeatherDisplay:10.37,2013-03-26 07:25:00,
2013-03-26 03:30:00,32.0,32.0,28.61,North,0,4.6,4.6,100,0.00,,SKC,0.00,WeatherDisplay:10.37,2013-03-26 07:30:00,
2013-03-26 03:35:00,32.0,32.0,28.62,North,0,4.6,4.6,100,0.00,,SKC,0.00,WeatherDisplay:10.37,2013-03-26 07:35:00,
2013-03-26 03:40:00,32.0,32.0,28.62,North,0,6.9,6.9,100,0.00,,SKC,0.00,WeatherDisplay:10.37,2013-03-26 07:40:00,
2013-03-26 03:45:00,32.0,32.0,28.62,North,0,8.1,8.1,100,0.00,,SKC,0.00,WeatherDisplay:10.37,2013-03-26 07:45:00,
2013-03-26 03:50:00,32.0,32.0,28.61,North,0,5.8,5.8,100,0.00,,SKC,0.00,WeatherDisplay:10.37,2013-03-26 07:50:00,
2013-03-26 03:55:00,32.0,32.0,28.62,North,0,5.8,5.8,100,0.00,,SKC,0.00,WeatherDisplay:10.37,2013-03-26 07:55:00,
2013-03-26 04:00:00,32.0,32.0,28.62,North,0,6.9,6.9,100,0.00,,SKC,0.00,WeatherDisplay:10.37,2013-03-26 08:00:00,
2013-03-26 04:05:00,32.0,32.0,28.62,North,0,5.8,5.8,100,0.00,,SKC,0.00,WeatherDisplay:10.37,2013-03-26 08:05:00,
2013-03-26 04:10:00,32.0,32.0,28.62,North,0,8.1,8.1,100,0.00,,SKC,0.00,WeatherDisplay:10.37,2013-03-26 08:10:00,
2013-03-26 04:15:00,32.0,32.0,28.62,North,0,8.1,8.1,100,0.00,,SKC,0.00,WeatherDisplay:10.37,2013-03-26 08:15:00,
2013-03-26 04:20:00,31.8,31.8,28.62,North,0,4.6,4.6,100,0.00,,SKC,0.00,WeatherDisplay:10.37,2013-03-26 08:20:00,
2013-03-26 04:25:00,31.8,31.8,28.63,North,0,5.8,5.8,100,0.00,,SKC,0.00,WeatherDisplay:10.37,2013-03-26 08:25:00,
2013-03-26 04:30:00,31.8,31.8,28.63,North,0,6.9,6.9,100,0.00,,SKC,0.00,WeatherDisplay:10.37,2013-03-26 08:30:00,
2013-03-26 04:35:00,31.8,31.8,28.63,North,0,6.9,6.9,100,0.00,,SKC,0.00,WeatherDisplay:10.37,2013-03-26 08:35:00,
2013-03-26 04:40:00,31.8,31.8,28.63,North,0,5.8,5.8,100,0.00,,SKC,0.00,WeatherDisplay:10.37,2013-03-26 08:40:00,
2013-03-26 04:45:00,31.8,31.8,28.63,North,0,5.8,5.8,100,0.00,,SKC,0.00,WeatherDisplay:10.37,2013-03-26 08:45:00,
2013-03-26 04:50:00,31.6,31.6,28.63,North,0,5.8,5.8,100,0.00,,SKC,0.00,WeatherDisplay:10.37,2013-03-26 08:50:00,
2013-03-26 04:55:00,31.5,31.5,28.63,North,0,5.8,5.8,100,0.00,,SKC,0.00,WeatherDisplay:10.37,2013-03-26 08:55:00,
2013-03-26 05:00:00,31.3,31.3,28.64,North,0,4.6,4.6,100,0.00,,SKC,0.00,WeatherDisplay:10.37,2013-03-26 09:00:00,
2013-03-26 05:05:00,31.3,31.3,28.64,North,0,5.8,5.8,100,0.00,,SKC,0.00,WeatherDisplay:10.37,2013-03-26 09:05:00,
2013-03-26 05:10:00,31.1,31.1,28.64,North,0,5.8,5.8,100,0.00,,SKC,0.00,WeatherDisplay:10.37,2013-03-26 09:10:00,
2013-03-26 05:15:00,30.9,30.9,28.64,North,0,4.6,4.6,100,0.00,,SKC,0.00,WeatherDisplay:10.37,2013-03-26 09:15:00,
2013-03-26 05:20:00,30.9,30.9,28.64,North,0,6.9,6.9,100,0.00,,SKC,0.00,WeatherDisplay:10.37,2013-03-26 09:20:00,
2013-03-26 05:25:00,30.7,30.7,28.64,North,0,5.8,5.8,100,0.00,,SKC,0.00,WeatherDisplay:10.37,2013-03-26 09:25:00,
2013-03-26 05:30:00,30.6,30.6,28.65,North,0,3.5,3.5,100,0.00,,SKC,0.00,WeatherDisplay:10.37,2013-03-26 09:30:00,
2013-03-26 05:35:00,30.4,30.4,28.65,North,0,3.5,3.5,100,0.00,,SKC,0.00,WeatherDisplay:10.37,2013-03-26 09:35:00,
2013-03-26 05:40:00,30.4,30.4,28.65,North,0,5.8,5.8,100,0.00,,SKC,0.00,WeatherDisplay:10.37,2013-03-26 09:40:00,
2013-03-26 05:45:00,30.4,30.4,28.65,North,0,5.8,5.8,100,0.00,,SKC,0.00,WeatherDisplay:10.37,2013-03-26 09:45:00,
2013-03-26 05:50:00,30.6,30.6,28.65,North,0,5.8,5.8,100,0.00,,SKC,0.00,WeatherDisplay:10.37,2013-03-26 09:50:00,
2013-03-26 05:55:00,30.7,30.7,28.66,North,0,4.6,4.6,100,0.00,,SKC,0.00,WeatherDisplay:10.37,2013-03-26 09:55:00,
2013-03-26 06:00:00,30.7,30.7,28.66,North,0,6.9,6.9,100,0.00,,SKC,0.00,WeatherDisplay:10.37,2013-03-26 10:00:00,
2013-03-26 06:05:00,30.7,30.7,28.66,North,0,3.5,3.5,100,0.00,,SKC,0.00,WeatherDisplay:10.37,2013-03-26 10:05:00,
2013-03-26 06:10:00,30.9,30.9,28.66,North,0,8.1,8.1,100,0.00,,SKC,0.00,WeatherDisplay:10.37,2013-03-26 10:10:00,
2013-03-26 06:15:00,30.9,30.9,28.66,North,0,6.9,6.9,100,0.00,,SKC,0.00,WeatherDisplay:10.37,2013-03-26 10:15:00,
2013-03-26 06:20:00,30.9,30.9,28.67,North,0,5.8,5.8,100,0.00,,SKC,0.00,WeatherDisplay:10.37,2013-03-26 10:20:00,
2013-03-26 06:25:00,30.9,30.9,28.67,North,0,5.8,5.8,100,0.00,,SKC,0.00,WeatherDisplay:10.37,2013-03-26 10:25:00,
2013-03-26 06:30:00,30.9,30.9,28.67,North,0,4.6,4.6,100,0.00,,SKC,0.00,WeatherDisplay:10.37,2013-03-26 10:30:00,
2013-03-26 06:35:00,30.9,30.9,28.67,North,0,4.6,4.6,100,0.00,,SKC,0.00,WeatherDisplay:10.37,2013-03-26 10:35:00,
2013-03-26 06:40:00,31.1,31.1,28.67,North,0,5.8,5.8,100,0.00,,SKC,0.00,WeatherDisplay:10.37,2013-03-26 10:40:00,
2013-03-26 06:45:00,31.1,31.1,28.67,North,0,1.2,1.2,100,0.00,,SKC,0.00,WeatherDisplay:10.37,2013-03-26 10:45:00,
2013-03-26 06:50:00,30.9,30.9,28.67,North,0,3.5,3.5,100,0.00,,SKC,0.00,WeatherDisplay:10.37,2013-03-26 10:50:00,
2013-03-26 06:55:00,30.9,30.9,28.68,North,0,3.5,3.5,100,0.00,,SKC,0.00,WeatherDisplay:10.37,2013-03-26 10:55:00,
2013-03-26 07:00:00,31.1,31.1,28.68,North,0,1.2,1.2,100,0.00,,SKC,0.00,WeatherDisplay:10.37,2013-03-26 11:00:00,
2013-03-26 07:05:00,31.1,31.1,28.68,North,0,2.3,2.3,100,0.00,,SKC,0.00,WeatherDisplay:10.37,2013-03-26 11:05:00,
2013-03-26 07:10:00,30.9,30.9,28.68,North,0,0.0,0.0,100,0.00,,SKC,0.00,WeatherDisplay:10.37,2013-03-26 11:10:00,
2013-03-26 07:15:00,30.9,30.9,28.68,North,0,0.0,0.0,100,0.00,,SKC,0.00,WeatherDisplay:10.37,2013-03-26 11:15:00,
2013-03-26 07:20:00,30.9,30.9,28.68,North,0,1.2,0.0,100,0.00,,SKC,0.00,WeatherDisplay:10.37,2013-03-26 11:20:00,
2013-03-26 07:25:00,30.9,30.9,28.69,North,0,0.0,0.0,100,0.00,,SKC,0.00,WeatherDisplay:10.37,2013-03-26 11:25:00,
2013-03-26 07:30:00,30.9,30.9,28.69,North,0,0.0,0.0,100,0.00,,SKC,0.00,WeatherDisplay:10.37,2013-03-26 11:30:00,
2013-03-26 07:35:00,31.1,31.1,28.69,North,0,1.2,0.0,100,0.00,,SKC,0.00,WeatherDisplay:10.37,2013-03-26 11:35:00,
2013-03-26 07:40:00,31.1,31.1,28.69,North,0,0.0,0.0,100,0.00,,SKC,0.00,WeatherDisplay:10.37,2013-03-26 11:40:00,
2013-03-26 07:45:00,31.1,31.1,28.70,North,0,1.2,0.0,100,0.00,,SKC,0.00,WeatherDisplay:10.37,2013-03-26 11:45:00,
2013-03-26 07:50:00,31.1,31.1,28.69,North,0,0.0,0.0,100,0.00,,SKC,0.00,WeatherDisplay:10.37,2013-03-26 11:50:00,
2013-03-26 07:55:00,31.3,31.3,28.70,North,0,0.0,0.0,100,0.00,,SKC,0.00,WeatherDisplay:10.37,2013-03-26 11:55:00,
2013-03-26 08:00:00,31.5,31.5,28.71,North,0,0.0,0.0,100,0.00,,SKC,0.00,WeatherDisplay:10.37,2013-03-26 12:00:00,
2013-03-26 08:05:00,31.6,31.6,28.71,North,0,0.0,0.0,100,0.00,,SKC,0.00,WeatherDisplay:10.37,2013-03-26 12:05:00,
2013-03-26 08:10:00,31.6,31.6,28.71,North,0,1.2,0.0,100,0.00,,SKC,0.00,WeatherDisplay:10.37,2013-03-26 12:10:00,
2013-03-26 08:15:00,31.8,31.8,28.71,North,0,3.5,0.0,100,0.00,,SKC,0.00,WeatherDisplay:10.37,2013-03-26 12:15:00,
2013-03-26 08:20:00,32.0,32.0,28.71,North,0,0.0,0.0,100,0.00,,SKC,0.00,WeatherDisplay:10.37,2013-03-26 12:20:00,
2013-03-26 08:25:00,32.2,32.2,28.71,North,0,1.2,0.0,100,0.00,,SKC,0.00,WeatherDisplay:10.37,2013-03-26 12:25:00,
2013-03-26 08:30:00,32.2,32.2,28.71,North,0,3.5,3.5,100,0.00,,SKC,0.00,WeatherDisplay:10.37,2013-03-26 12:30:00,
2013-03-26 08:35:00,32.4,32.4,28.72,North,0,1.2,1.2,100,0.00,,SKC,0.00,WeatherDisplay:10.37,2013-03-26 12:35:00,
2013-03-26 08:40:00,32.5,32.5,28.72,North,0,1.2,0.0,100,0.00,,SKC,0.00,WeatherDisplay:10.37,2013-03-26 12:40:00,
2013-03-26 08:45:00,32.7,32.7,28.72,North,0,0.0,0.0,100,0.00,,SKC,0.00,WeatherDisplay:10.37,2013-03-26 12:45:00,
2013-03-26 08:50:00,32.9,32.9,28.72,South,180,0.0,0.0,100,0.00,,SKC,0.00,WeatherDisplay:10.37,2013-03-26 12:50:00,
2013-03-26 08:55:00,33.3,33.3,28.72,South,180,2.3,0.0,100,0.00,,SKC,0.00,WeatherDisplay:10.37,2013-03-26 12:55:00,
2013-03-26 09:00:00,33.4,33.4,28.72,North,0,1.2,0.0,100,0.00,,SKC,0.00,WeatherDisplay:10.37,2013-03-26 13:00:00,
2013-03-26 09:05:00,33.4,33.4,28.72,North,0,0.0,0.0,100,0.00,,SKC,0.00,WeatherDisplay:10.37,2013-03-26 13:05:00,
2013-03-26 09:10:00,34.0,34.0,28.73,NNE,22,1.2,1.6,100,0.00,,SKC,0.00,WeatherDisplay:10.37,2013-03-26 13:10:00,
2013-03-26 09:15:00,34.2,34.2,28.73,South,180,3.5,0.0,100,0.00,,SKC,0.00,WeatherDisplay:10.37,2013-03-26 13:15:00,
2013-03-26 09:20:00,34.2,34.2,28.73,South,180,3.5,3.5,100,0.00,,SKC,0.00,WeatherDisplay:10.37,2013-03-26 13:20:00,
2013-03-26 09:25:00,34.7,34.7,28.73,North,8,3.5,3.5,100,0.00,,SKC,0.00,WeatherDisplay:10.37,2013-03-26 13:25:00,
2013-03-26 09:30:00,34.2,34.2,28.73,North,1,5.8,5.8,100,0.00,,SKC,0.00,WeatherDisplay:10.37,2013-03-26 13:30:00,
2013-03-26 09:35:00,34.2,34.2,28.73,WSW,248,5.8,5.8,100,0.00,,SKC,0.00,WeatherDisplay:10.37,2013-03-26 13:35:00,
2013-03-26 09:40:00,34.0,34.0,28.73,North,1,8.1,8.1,100,0.00,,SKC,0.00,WeatherDisplay:10.37,2013-03-26 13:40:00,
2013-03-26 09:45:00,34.3,34.3,28.73,North,0,4.6,4.6,100,0.00,,SKC,0.00,WeatherDisplay:10.37,2013-03-26 13:45:00,
2013-03-26 09:50:00,34.3,34.3,28.74,West,270,6.9,6.9,100,0.01,RA,SKC,0.01,WeatherDisplay:10.37,2013-03-26 13:50:00,
2013-03-26 09:55:00,34.2,34.2,28.74,North,1,5.8,5.8,100,0.01,RA,SKC,0.01,WeatherDisplay:10.37,2013-03-26 13:55:00,
2013-03-26 10:00:00,34.0,34.0,28.74,North,0,5.8,5.8,100,0.01,CLR,SKC,0.01,WeatherDisplay:10.37,2013-03-26 14:00:00,
2013-03-26 10:05:00,33.8,33.8,28.74,NNE,22,5.8,5.8,100,0.01,CLR,SKC,0.01,WeatherDisplay:10.37,2013-03-26 14:05:00,
2013-03-26 10:10:00,33.6,33.6,28.75,North,0,8.3,8.3,100,0.01,CLR,SKC,0.01,WeatherDisplay:10.37,2013-03-26 14:10:00,
2013-03-26 10:15:00,33.6,33.6,28.75,North,0,8.1,8.1,100,0.01,CLR,SKC,0.01,WeatherDisplay:10.37,2013-03-26 14:15:00,
2013-03-26 10:20:00,34.3,34.3,28.75,South,180,5.8,5.8,100,0.01,CLR,SKC,0.01,WeatherDisplay:10.37,2013-03-26 14:20:00,
2013-03-26 10:25:00,35.1,35.1,28.75,South,180,5.8,5.8,100,0.01,CLR,SKC,0.01,WeatherDisplay:10.37,2013-03-26 14:25:00,
2013-03-26 10:30:00,34.9,34.9,28.75,NNE,12,6.9,6.9,100,0.01,CLR,SKC,0.01,WeatherDisplay:10.37,2013-03-26 14:30:00,
2013-03-26 10:35:00,35.1,35.1,28.75,SE,135,5.8,5.8,100,0.01,CLR,SKC,0.01,WeatherDisplay:10.37,2013-03-26 14:35:00,
2013-03-26 10:40:00,35.6,35.6,28.75,South,180,5.8,5.8,100,0.01,CLR,SKC,0.01,WeatherDisplay:10.37,2013-03-26 14:40:00,
2013-03-26 10:45:00,35.4,35.4,28.75,NW,315,8.1,8.1,100,0.02,RA,SKC,0.02,WeatherDisplay:10.37,2013-03-26 14:45:00,
2013-03-26 10:50:00,35.4,35.4,28.75,South,180,6.9,6.9,100,0.01,RA,SKC,0.02,WeatherDisplay:10.37,2013-03-26 14:50:00,
2013-03-26 10:55:00,36.1,36.1,28.75,South,180,3.5,3.5,100,0.01,CLR,SKC,0.02,WeatherDisplay:10.37,2013-03-26 14:55:00,
2013-03-26 11:00:00,36.3,36.3,28.75,North,8,5.8,5.8,100,0.01,CLR,SKC,0.02,WeatherDisplay:10.37,2013-03-26 15:00:00,
2013-03-26 11:05:00,36.3,36.3,28.76,South,180,6.9,6.9,100,0.01,CLR,SKC,0.02,WeatherDisplay:10.37,2013-03-26 15:05:00,
2013-03-26 11:10:00,36.5,36.5,28.76,NNE,12,8.1,8.1,100,0.01,CLR,SKC,0.02,WeatherDisplay:10.37,2013-03-26 15:10:00,
2013-03-26 11:15:00,36.7,36.7,28.76,South,180,8.1,8.1,100,0.02,RA,SKC,0.04,WeatherDisplay:10.37,2013-03-26 15:15:00,
2013-03-26 11:20:00,37.0,37.0,28.75,South,180,8.1,8.1,100,0.02,RA,SKC,0.04,WeatherDisplay:10.37,2013-03-26 15:20:00,
2013-03-26 11:25:00,37.2,37.2,28.76,South,180,8.1,8.1,100,0.02,CLR,SKC,0.04,WeatherDisplay:10.37,2013-03-26 15:25:00,
2013-03-26 11:30:00,37.2,37.0,28.76,NNE,22,10.4,10.4,99,0.02,CLR,SKC,0.04,WeatherDisplay:10.37,2013-03-26 15:30:00,
2013-03-26 11:35:00,37.2,36.7,28.76,NNE,15,11.5,11.5,98,0.02,CLR,SKC,0.04,WeatherDisplay:10.37,2013-03-26 15:35:00,
2013-03-26 11:40:00,38.5,37.4,28.76,North,3,11.5,11.5,96,0.02,CLR,SKC,0.04,WeatherDisplay:10.37,2013-03-26 15:40:00,
2013-03-26 11:45:00,39.7,38.2,28.76,South,180,5.8,5.8,94,0.01,CLR,SKC,0.04,WeatherDisplay:10.37,2013-03-26 15:45:00,
2013-03-26 11:50:00,40.1,38.0,28.76,NNE,22,11.5,11.5,92,0.02,RA,SKC,0.05,WeatherDisplay:10.37,2013-03-26 15:50:00,
2013-03-26 11:55:00,39.6,36.9,28.76,North,11,11.5,11.5,90,0.02,RA,SKC,0.05,WeatherDisplay:10.37,2013-03-26 15:55:00,
2013-03-26 12:00:00,39.9,37.2,28.76,West,270,9.2,9.2,90,0.02,CLR,SKC,0.05,WeatherDisplay:10.37,2013-03-26 16:00:00,
2013-03-26 12:05:00,40.3,37.0,28.76,North,1,15.0,15.0,88,0.02,CLR,SKC,0.05,WeatherDisplay:10.37,2013-03-26 16:05:00,
2013-03-26 12:10:00,41.4,37.5,28.76,South,180,9.2,9.2,86,0.02,CLR,SKC,0.05,WeatherDisplay:10.37,2013-03-26 16:10:00,
2013-03-26 12:15:00,42.1,37.6,28.76,West,270,9.2,9.2,84,0.01,CLR,SKC,0.05,WeatherDisplay:10.37,2013-03-26 16:15:00,
2013-03-26 12:20:00,41.7,36.9,28.76,NNE,15,13.8,13.8,83,0.01,CLR,SKC,0.05,WeatherDisplay:10.37,2013-03-26 16:20:00,
2013-03-26 12:25:00,40.1,35.7,28.76,North,10,12.7,12.7,84,0.01,CLR,SKC,0.05,WeatherDisplay:10.37,2013-03-26 16:25:00,
2013-03-26 12:30:00,41.0,36.8,28.76,North,0,9.2,9.2,85,0.01,CLR,SKC,0.05,WeatherDisplay:10.37,2013-03-26 16:30:00,
2013-03-26 12:35:00,41.2,36.4,28.76,South,180,9.2,9.2,83,0.01,CLR,SKC,0.05,WeatherDisplay:10.37,2013-03-26 16:35:00,
2013-03-26 12:40:00,41.7,36.9,28.76,North,0,6.9,6.9,83,0.01,CLR,SKC,0.05,WeatherDisplay:10.37,2013-03-26 16:40:00,
2013-03-26 12:45:00,41.7,36.6,28.76,South,180,10.4,10.4,82,0.01,CLR,SKC,0.05,WeatherDisplay:10.37,2013-03-26 16:45:00,
2013-03-26 12:50:00,41.0,35.9,28.76,North,8,11.5,11.5,82,0.00,CLR,SKC,0.05,WeatherDisplay:10.37,2013-03-26 16:50:00,
2013-03-26 12:55:00,40.1,35.4,28.76,North,8,11.4,11.4,83,0.00,CLR,SKC,0.05,WeatherDisplay:10.37,2013-03-26 16:55:00,
2013-03-26 13:00:00,40.3,35.8,28.76,SE,135,6.9,6.9,84,0.00,CLR,SKC,0.05,WeatherDisplay:10.37,2013-03-26 17:00:00,
2013-03-26 13:05:00,40.3,35.5,28.77,NNE,22,8.1,8.1,83,0.00,CLR,SKC,0.05,WeatherDisplay:10.37,2013-03-26 17:05:00,
2013-03-26 13:10:00,40.5,35.7,28.77,West,270,13.8,13.8,83,0.00,CLR,SKC,0.05,WeatherDisplay:10.37,2013-03-26 17:10:00,
2013-03-26 13:15:00,40.6,35.9,28.77,NW,315,10.4,10.4,83,0.00,CLR,SKC,0.05,WeatherDisplay:10.37,2013-03-26 17:15:00,
2013-03-26 13:20:00,41.4,36.3,28.77,North,1,15.0,15.0,82,0.00,CLR,SKC,0.05,WeatherDisplay:10.37,2013-03-26 17:20:00,
2013-03-26 13:25:00,41.0,35.3,28.77,NW,315,12.7,12.7,80,0.00,CLR,SKC,0.05,WeatherDisplay:10.37,2013-03-26 17:25:00,
2013-03-26 13:30:00,40.8,35.7,28.77,NNE,14,16.1,16.1,82,0.00,CLR,SKC,0.05,WeatherDisplay:10.37,2013-03-26 17:30:00,
2013-03-26 13:35:00,41.4,35.7,28.77,West,270,10.4,10.4,80,0.00,CLR,SKC,0.05,WeatherDisplay:10.37,2013-03-26 17:35:00,
2013-03-26 13:40:00,41.0,35.3,28.77,North,1,10.4,10.4,80,0.00,CLR,SKC,0.05,WeatherDisplay:10.37,2013-03-26 17:40:00,
2013-03-26 13:45:00,41.5,35.8,28.77,West,270,8.1,8.1,80,0.00,CLR,SKC,0.05,WeatherDisplay:10.37,2013-03-26 17:45:00,
2013-03-26 13:50:00,41.2,35.2,28.77,NNW,338,13.8,13.8,79,0.00,CLR,SKC,0.05,WeatherDisplay:10.37,2013-03-26 17:50:00,
2013-03-26 13:55:00,41.2,35.5,28.77,North,1,8.1,8.1,80,0.00,CLR,SKC,0.05,WeatherDisplay:10.37,2013-03-26 17:55:00,
2013-03-26 14:00:00,42.1,36.0,28.77,North,0,9.2,9.2,79,0.00,CLR,SKC,0.05,WeatherDisplay:10.37,2013-03-26 18:00:00,
2013-03-26 14:05:00,42.3,36.2,28.77,South,180,9.2,9.2,79,0.00,CLR,SKC,0.05,WeatherDisplay:10.37,2013-03-26 18:05:00,
2013-03-26 14:10:00,42.6,36.2,28.76,West,270,9.2,9.2,78,0.00,CLR,SKC,0.05,WeatherDisplay:10.37,2013-03-26 18:10:00,
2013-03-26 14:15:00,42.6,35.9,28.77,NNE,14,12.7,12.7,77,0.00,CLR,SKC,0.05,WeatherDisplay:10.37,2013-03-26 18:15:00,
2013-03-26 14:20:00,41.9,35.2,28.77,North,0,12.7,12.7,77,0.00,CLR,SKC,0.05,WeatherDisplay:10.37,2013-03-26 18:20:00,
2013-03-26 14:25:00,41.9,35.5,28.77,North,0,12.7,12.7,78,0.00,CLR,SKC,0.05,WeatherDisplay:10.37,2013-03-26 18:25:00,
2013-03-26 14:30:00,42.6,35.6,28.77,North,8,8.1,8.1,76,0.00,CLR,SKC,0.05,WeatherDisplay:10.37,2013-03-26 18:30:00,
2013-03-26 14:35:00,42.3,34.6,28.77,North,0,13.8,13.8,74,0.00,CLR,SKC,0.05,WeatherDisplay:10.37,2013-03-26 18:35:00,
2013-03-26 14:40:00,41.5,34.5,28.76,North,0,13.8,13.8,76,0.00,CLR,SKC,0.05,WeatherDisplay:10.37,2013-03-26 18:40:00,
2013-03-26 14:45:00,41.5,34.2,28.76,North,0,15.0,15.0,75,0.00,CLR,SKC,0.05,WeatherDisplay:10.37,2013-03-26 18:45:00,
2013-03-26 14:50:00,41.7,34.0,28.76,West,270,16.1,16.1,74,0.00,CLR,SKC,0.05,WeatherDisplay:10.37,2013-03-26 18:50:00,
2013-03-26 14:55:00,41.7,34.4,28.77,NNE,22,12.7,12.7,75,0.00,CLR,SKC,0.05,WeatherDisplay:10.37,2013-03-26 18:55:00,
2013-03-26 15:00:00,41.9,33.9,28.76,North,0,10.4,10.4,73,0.00,CLR,SKC,0.05,WeatherDisplay:10.37,2013-03-26 19:00:00,
2013-03-26 15:05:00,41.9,33.9,28.76,NW,315,10.4,10.4,73,0.00,CLR,SKC,0.05,WeatherDisplay:10.37,2013-03-26 19:05:00,
2013-03-26 15:10:00,42.1,34.4,28.76,NNE,14,12.7,12.7,74,0.00,CLR,SKC,0.05,WeatherDisplay:10.37,2013-03-26 19:10:00,
2013-03-26 15:15:00,42.4,34.4,28.77,NNE,14,10.4,10.4,73,0.00,CLR,SKC,0.05,WeatherDisplay:10.37,2013-03-26 19:15:00,
2013-03-26 15:20:00,42.8,34.7,28.76,North,0,11.5,11.5,73,0.00,CLR,SKC,0.05,WeatherDisplay:10.37,2013-03-26 19:20:00,
2013-03-26 15:25:00,42.1,34.0,28.76,NW,315,12.7,12.7,73,0.00,CLR,SKC,0.05,WeatherDisplay:10.37,2013-03-26 19:25:00,
2013-03-26 15:30:00,41.7,33.7,28.76,North,1,15.0,15.0,73,0.00,CLR,SKC,0.05,WeatherDisplay:10.37,2013-03-26 19:30:00,
2013-03-26 15:35:00,41.7,33.7,28.76,North,0,19.6,19.6,73,0.00,CLR,SKC,0.05,WeatherDisplay:10.37,2013-03-26 19:35:00,
2013-03-26 15:40:00,41.7,33.7,28.76,North,11,17.3,17.3,73,0.00,CLR,SKC,0.05,WeatherDisplay:10.37,2013-03-26 19:40:00,
2013-03-26 15:45:00,41.7,34.0,28.76,North,8,13.8,13.8,74,0.00,CLR,SKC,0.05,WeatherDisplay:10.37,2013-03-26 19:45:00,
2013-03-26 15:50:00,42.1,34.0,28.76,NW,315,10.4,10.4,73,0.00,CLR,SKC,0.05,WeatherDisplay:10.37,2013-03-26 19:50:00,
2013-03-26 15:55:00,41.7,33.4,28.76,North,9,16.1,16.1,72,0.00,CLR,SKC,0.05,WeatherDisplay:10.37,2013-03-26 19:55:00,
2013-03-26 16:00:00,41.5,33.2,28.76,South,180,16.1,16.1,72,0.00,CLR,SKC,0.05,WeatherDisplay:10.37,2013-03-26 20:00:00,
2013-03-26 16:05:00,41.5,33.5,28.76,North,0,12.7,12.7,73,0.00,CLR,SKC,0.05,WeatherDisplay:10.37,2013-03-26 20:05:00,
2013-03-26 16:10:00,41.2,33.5,28.77,NNE,13,13.8,13.8,74,0.00,CLR,SKC,0.05,WeatherDisplay:10.37,2013-03-26 20:10:00,
2013-03-26 16:15:00,41.4,33.4,28.77,South,180,16.1,16.1,73,0.00,CLR,SKC,0.05,WeatherDisplay:10.37,2013-03-26 20:15:00,
2013-03-26 16:20:00,41.2,32.8,28.77,West,270,17.3,17.3,72,0.00,CLR,SKC,0.05,WeatherDisplay:10.37,2013-03-26 20:20:00,
2013-03-26 16:25:00,41.4,33.0,28.77,South,180,11.5,11.5,72,0.00,CLR,SKC,0.05,WeatherDisplay:10.37,2013-03-26 20:25:00,
2013-03-26 16:30:00,41.0,33.0,28.77,North,0,20.7,20.7,73,0.00,CLR,SKC,0.05,WeatherDisplay:10.37,2013-03-26 20:30:00,
2013-03-26 16:35:00,41.5,33.2,28.77,North,0,15.0,15.0,72,0.00,CLR,SKC,0.05,WeatherDisplay:10.37,2013-03-26 20:35:00,
2013-03-26 16:40:00,42.1,33.0,28.77,NNE,15,16.1,16.1,70,0.00,CLR,SKC,0.05,WeatherDisplay:10.37,2013-03-26 20:40:00,
2013-03-26 16:45:00,41.5,33.2,28.77,North,0,17.3,17.3,72,0.00,CLR,SKC,0.05,WeatherDisplay:10.37,2013-03-26 20:45:00,
2013-03-26 16:50:00,41.4,33.4,28.77,West,270,12.7,12.7,73,0.00,CLR,SKC,0.05,WeatherDisplay:10.37,2013-03-26 20:50:00,
2013-03-26 16:55:00,41.0,33.0,28.77,WNW,292,15.0,15.0,73,0.00,CLR,SKC,0.05,WeatherDisplay:10.37,2013-03-26 20:55:00,
2013-03-26 17:00:00,40.6,32.7,28.77,NW,315,13.8,13.8,73,0.00,CLR,SKC,0.05,WeatherDisplay:10.37,2013-03-26 21:00:00,
2013-03-26 17:05:00,40.5,33.2,28.78,North,1,17.3,17.3,75,0.00,CLR,SKC,0.05,WeatherDisplay:10.37,2013-03-26 21:05:00,
2013-03-26 17:10:00,40.6,33.3,28.78,North,0,16.1,16.1,75,0.00,CLR,SKC,0.05,WeatherDisplay:10.37,2013-03-26 21:10:00,
2013-03-26 17:15:00,41.2,33.9,28.78,West,270,13.8,13.8,75,0.00,CLR,SKC,0.05,WeatherDisplay:10.37,2013-03-26 21:15:00,
2013-03-26 17:20:00,40.8,33.5,28.78,North,1,15.0,15.0,75,0.00,CLR,SKC,0.05,WeatherDisplay:10.37,2013-03-26 21:20:00,
2013-03-26 17:25:00,40.8,33.8,28.78,North,8,12.7,12.7,76,0.00,CLR,SKC,0.05,WeatherDisplay:10.37,2013-03-26 21:25:00,
2013-03-26 17:31:00,40.5,33.8,28.78,North,0,13.8,13.8,77,0.00,CLR,SKC,0.05,WeatherDisplay:10.37,2013-03-26 21:31:00,
2013-03-26 17:36:00,40.1,33.5,28.78,South,180,15.0,15.0,77,0.00,CLR,SKC,0.05,WeatherDisplay:10.37,2013-03-26 21:36:00,
2013-03-26 17:42:00,39.9,33.6,28.79,North,8,15.0,15.0,78,0.00,CLR,SKC,0.05,WeatherDisplay:10.37,2013-03-26 21:42:00,
2013-03-26 17:47:00,39.6,33.6,28.79,NNE,12,18.4,18.4,79,0.00,CLR,SKC,0.05,WeatherDisplay:10.37,2013-03-26 21:47:00,
2013-03-26 17:52:00,39.4,33.4,28.79,South,180,9.2,9.2,79,0.00,CLR,SKC,0.05,WeatherDisplay:10.37,2013-03-26 21:52:00,
2013-03-26 17:57:00,39.4,33.7,28.79,South,180,12.7,12.7,80,0.00,CLR,SKC,0.05,WeatherDisplay:10.37,2013-03-26 21:57:00,
2013-03-26 18:02:00,39.2,33.5,28.79,North,7,12.7,12.7,80,0.00,CLR,SKC,0.05,WeatherDisplay:10.37,2013-03-26 22:02:00,
2013-03-26 18:07:00,39.0,33.4,28.79,North,0,17.3,17.3,80,0.00,CLR,SKC,0.05,WeatherDisplay:10.37,2013-03-26 22:07:00,
2013-03-26 18:13:00,39.2,33.9,28.79,North,0,10.4,10.4,81,0.00,CLR,SKC,0.05,WeatherDisplay:10.37,2013-03-26 22:13:00,
2013-03-26 18:18:00,39.2,33.9,28.80,West,270,12.7,12.7,81,0.00,CLR,SKC,0.05,WeatherDisplay:10.37,2013-03-26 22:18:00,
2013-03-26 18:23:00,39.2,33.9,28.80,North,1,12.7,12.7,81,0.00,CLR,SKC,0.05,WeatherDisplay:10.37,2013-03-26 22:23:00,
2013-03-26 18:28:00,38.7,33.6,28.80,North,0,19.6,19.6,82,0.01,RA,SKC,0.06,WeatherDisplay:10.37,2013-03-26 22:28:00,
2013-03-26 18:33:00,38.5,33.8,28.80,South,180,15.0,15.0,83,0.01,RA,SKC,0.06,WeatherDisplay:10.37,2013-03-26 22:33:00,
2013-03-26 18:38:00,38.3,33.6,28.80,WSW,248,12.7,12.7,83,0.01,,SKC,0.06,WeatherDisplay:10.37,2013-03-26 22:38:00,
2013-03-26 18:43:00,38.1,33.4,28.80,North,1,9.2,9.2,83,0.01,CLR,SKC,0.06,WeatherDisplay:10.37,2013-03-26 22:43:00,
2013-03-26 18:48:00,38.1,33.4,28.80,North,0,13.8,13.8,83,0.01,CLR,SKC,0.06,WeatherDisplay:10.37,2013-03-26 22:48:00,
2013-03-26 18:53:00,38.1,33.4,28.81,North,0,12.7,12.7,83,0.01,CLR,SKC,0.06,WeatherDisplay:10.37,2013-03-26 22:53:00,
2013-03-26 18:58:00,37.9,33.5,28.81,NNE,14,8.1,8.1,84,0.01,CLR,SKC,0.06,WeatherDisplay:10.37,2013-03-26 22:58:00,
2013-03-26 19:04:00,37.8,33.4,28.81,North,0,15.0,15.0,84,0.01,CLR,SKC,0.06,WeatherDisplay:10.37,2013-03-26 23:04:00,
2013-03-26 19:09:00,37.6,33.2,28.81,NNE,15,11.5,11.5,84,0.01,CLR,SKC,0.06,WeatherDisplay:10.37,2013-03-26 23:09:00,
2013-03-26 19:14:00,37.4,33.3,28.82,North,0,15.0,15.0,85,0.01,CLR,SKC,0.06,WeatherDisplay:10.37,2013-03-26 23:14:00,
2013-03-26 19:19:00,37.4,33.3,28.82,North,0,10.4,10.4,85,0.01,CLR,SKC,0.06,WeatherDisplay:10.37,2013-03-26 23:19:00,
2013-03-26 19:24:00,37.0,33.2,28.82,North,0,12.7,12.7,86,0.01,CLR,SKC,0.06,WeatherDisplay:10.37,2013-03-26 23:24:00,
2013-03-26 19:29:00,36.9,33.1,28.82,West,270,8.1,8.1,86,0.00,CLR,SKC,0.06,WeatherDisplay:10.37,2013-03-26 23:29:00,
2013-03-26 19:34:00,36.9,33.1,28.82,North,1,9.2,9.2,86,0.00,CLR,SKC,0.06,WeatherDisplay:10.37,2013-03-26 23:34:00,
2013-03-26 19:39:00,36.7,33.2,28.82,North,0,8.1,8.1,87,0.00,CLR,SKC,0.06,WeatherDisplay:10.37,2013-03-26 23:39:00,
2013-03-26 19:44:00,36.7,33.2,28.82,North,0,8.1,8.1,87,0.00,CLR,SKC,0.06,WeatherDisplay:10.37,2013-03-26 23:44:00,
2013-03-26 19:49:00,36.7,33.2,28.82,North,0,5.8,5.8,87,0.00,CLR,SKC,0.06,WeatherDisplay:10.37,2013-03-26 23:49:00,
2013-03-26 19:54:00,36.7,33.2,28.83,North,0,10.4,10.4,87,0.00,CLR,SKC,0.06,WeatherDisplay:10.37,2013-03-26 23:54:00,
2013-03-26 19:59:00,36.5,33.0,28.83,North,0,6.9,6.9,87,0.00,CLR,SKC,0.06,WeatherDisplay:10.37,2013-03-26 23:59:00,
2013-03-26 20:04:00,36.5,33.3,28.83,North,0,9.2,9.2,88,0.00,CLR,SKC,0.06,WeatherDisplay:10.37,2013-03-27 00:04:00,
2013-03-26 20:09:00,36.5,33.3,28.83,NW,315,13.8,13.8,88,0.00,CLR,SKC,0.06,WeatherDisplay:10.37,2013-03-27 00:09:00,
2013-03-26 20:14:00,36.5,33.3,28.84,NNE,14,8.1,8.1,88,0.00,CLR,SKC,0.06,WeatherDisplay:10.37,2013-03-27 00:14:00,
2013-03-26 20:19:00,36.3,33.4,28.84,West,270,8.1,8.1,89,0.00,CLR,SKC,0.06,WeatherDisplay:10.37,2013-03-27 00:19:00,
2013-03-26 20:24:00,36.3,33.4,28.84,North,7,9.2,9.2,89,0.00,CLR,SKC,0.06,WeatherDisplay:10.37,2013-03-27 00:24:00,
2013-03-26 20:29:00,36.3,33.4,28.84,West,270,12.7,12.7,89,0.00,CLR,SKC,0.06,WeatherDisplay:10.37,2013-03-27 00:29:00,
2013-03-26 20:34:00,36.3,33.4,28.84,North,1,12.7,12.7,89,0.00,CLR,SKC,0.06,WeatherDisplay:10.37,2013-03-27 00:34:00,
2013-03-26 20:39:00,36.1,33.5,28.85,North,0,8.1,8.1,90,0.00,CLR,SKC,0.06,WeatherDisplay:10.37,2013-03-27 00:39:00,
2013-03-26 20:44:00,36.0,33.3,28.85,North,0,5.8,5.8,90,0.00,CLR,SKC,0.06,WeatherDisplay:10.37,2013-03-27 00:44:00,
2013-03-26 20:49:00,36.0,33.3,28.85,North,8,8.1,8.1,90,0.00,CLR,SKC,0.06,WeatherDisplay:10.37,2013-03-27 00:49:00,
2013-03-26 20:54:00,35.8,33.1,28.85,North,0,8.1,8.1,90,0.00,CLR,SKC,0.06,WeatherDisplay:10.37,2013-03-27 00:54:00,
2013-03-26 20:59:00,35.8,33.1,28.85,NNE,15,9.2,9.2,90,0.00,CLR,SKC,0.06,WeatherDisplay:10.37,2013-03-27 00:59:00,
2013-03-26 21:04:00,35.6,33.0,28.85,South,180,10.4,10.4,90,0.00,CLR,SKC,0.06,WeatherDisplay:10.37,2013-03-27 01:04:00,
2013-03-26 21:09:00,35.6,33.2,28.86,NE,45,8.1,8.1,91,0.00,CLR,SKC,0.06,WeatherDisplay:10.37,2013-03-27 01:09:00,
2013-03-26 21:14:00,35.6,33.2,28.86,North,0,6.9,6.9,91,0.00,CLR,SKC,0.06,WeatherDisplay:10.37,2013-03-27 01:14:00,
2013-03-26 21:19:00,35.6,33.2,28.86,West,270,4.6,4.6,91,0.00,CLR,SKC,0.06,WeatherDisplay:10.37,2013-03-27 01:19:00,
2013-03-26 21:24:00,35.6,33.2,28.87,NNE,15,10.4,10.4,91,0.00,CLR,SKC,0.06,WeatherDisplay:10.37,2013-03-27 01:24:00,
2013-03-26 21:29:00,35.4,33.3,28.86,North,0,10.4,10.4,92,0.00,CLR,SKC,0.06,WeatherDisplay:10.37,2013-03-27 01:29:00,
2013-03-26 21:34:00,35.4,33.3,28.87,North,0,9.2,9.2,92,0.00,CLR,SKC,0.06,WeatherDisplay:10.37,2013-03-27 01:34:00,
2013-03-26 21:39:00,35.4,33.3,28.87,North,8,8.1,8.1,92,0.00,CLR,SKC,0.06,WeatherDisplay:10.37,2013-03-27 01:39:00,
2013-03-26 21:44:00,35.2,33.4,28.87,South,180,5.8,5.8,93,0.00,CLR,SKC,0.06,WeatherDisplay:10.37,2013-03-27 01:44:00,
2013-03-26 21:49:00,35.2,33.4,28.87,NNE,22,4.6,4.6,93,0.00,CLR,SKC,0.06,WeatherDisplay:10.37,2013-03-27 01:49:00,
2013-03-26 21:54:00,35.1,33.2,28.87,South,180,3.5,3.5,93,0.00,CLR,SKC,0.06,WeatherDisplay:10.37,2013-03-27 01:54:00,
2013-03-26 21:59:00,34.9,33.1,28.88,South,180,3.5,3.5,93,0.00,CLR,SKC,0.06,WeatherDisplay:10.37,2013-03-27 01:59:00,
2013-03-26 22:04:00,34.9,33.1,28.87,South,180,3.5,3.5,93,0.00,CLR,SKC,0.06,WeatherDisplay:10.37,2013-03-27 02:04:00,
2013-03-26 22:09:00,34.9,33.1,28.87,South,180,3.5,3.5,93,0.00,CLR,SKC,0.06,WeatherDisplay:10.37,2013-03-27 02:09:00,
2013-03-26 22:14:00,34.9,33.3,28.87,South,180,5.8,5.8,94,0.00,CLR,SKC,0.06,WeatherDisplay:10.37,2013-03-27 02:14:00,
2013-03-26 22:19:00,34.9,33.3,28.87,West,270,3.5,3.5,94,0.00,CLR,SKC,0.06,WeatherDisplay:10.37,2013-03-27 02:19:00,
2013-03-26 22:24:00,34.9,33.3,28.87,South,180,3.5,3.5,94,0.00,CLR,SKC,0.06,WeatherDisplay:10.37,2013-03-27 02:24:00,
2013-03-26 22:29:00,34.9,33.3,28.88,South,180,10.4,10.4,94,0.00,CLR,SKC,0.06,WeatherDisplay:10.37,2013-03-27 02:29:00,
2013-03-26 22:34:00,34.9,33.3,28.88,South,180,8.1,8.1,94,0.00,CLR,SKC,0.06,WeatherDisplay:10.37,2013-03-27 02:34:00,
2013-03-26 22:39:00,34.9,33.3,28.88,South,180,9.2,9.2,94,0.00,CLR,SKC,0.06,WeatherDisplay:10.37,2013-03-27 02:39:00,
2013-03-26 22:44:00,34.9,33.1,28.88,North,2,9.2,9.2,93,0.00,CLR,SKC,0.06,WeatherDisplay:10.37,2013-03-27 02:44:00,
2013-03-26 22:49:00,34.9,33.3,28.88,South,180,15.0,15.0,94,0.00,CLR,SKC,0.06,WeatherDisplay:10.37,2013-03-27 02:49:00,
2013-03-26 22:54:00,34.5,33.5,28.88,North,9,17.3,17.3,96,0.00,CLR,SKC,0.06,WeatherDisplay:10.37,2013-03-27 02:54:00,
2013-03-26 22:59:00,34.3,33.6,28.88,South,180,16.1,16.1,97,0.00,CLR,SKC,0.06,WeatherDisplay:10.37,2013-03-27 02:59:00,
2013-03-26 23:04:00,34.3,33.6,28.88,North,0,9.2,9.2,97,0.00,CLR,SKC,0.06,WeatherDisplay:10.37,2013-03-27 03:04:00,
2013-03-26 23:09:00,33.6,33.6,28.88,North,0,9.2,9.2,100,0.00,CLR,SKC,0.06,WeatherDisplay:10.37,2013-03-27 03:09:00,
2013-03-26 23:14:00,33.4,33.4,28.88,NNE,12,9.2,9.2,100,0.00,CLR,SKC,0.06,WeatherDisplay:10.37,2013-03-27 03:14:00,
2013-03-26 23:19:00,33.4,33.4,28.88,North,0,19.6,19.6,100,0.00,CLR,SKC,0.06,WeatherDisplay:10.37,2013-03-27 03:19:00,
2013-03-26 23:24:00,33.1,33.1,28.88,NNE,22,13.8,13.8,100,0.00,CLR,SKC,0.06,WeatherDisplay:10.37,2013-03-27 03:24:00,
2013-03-26 23:29:00,33.1,33.1,28.88,NNE,22,12.7,12.7,100,0.00,CLR,SKC,0.06,WeatherDisplay:10.37,2013-03-27 03:29:00,
2013-03-26 23:34:00,32.9,32.9,28.88,South,180,10.4,10.4,100,0.00,CLR,SKC,0.06,WeatherDisplay:10.37,2013-03-27 03:34:00,
2013-03-26 23:39:00,32.9,32.9,28.88,NNE,15,9.2,9.2,100,0.00,CLR,SKC,0.06,WeatherDisplay:10.37,2013-03-27 03:39:00,
2013-03-26 23:44:00,32.7,32.7,28.88,South,180,10.4,10.4,100,0.00,CLR,SKC,0.06,WeatherDisplay:10.37,2013-03-27 03:44:00,
2013-03-26 23:49:00,32.7,32.7,28.88,South,180,6.9,6.9,100,0.00,CLR,SKC,0.06,WeatherDisplay:10.37,2013-03-27 03:49:00,
2013-03-26 23:54:00,32.7,32.7,28.88,South,180,8.1,8.1,100,0.00,CLR,SKC,0.06,WeatherDisplay:10.37,2013-03-27 03:54:00,
2013-03-26 23:59:00,32.5,32.5,28.88,West,270,8.1,8.1,100,0.00,CLR,SKC,0.06,WeatherDisplay:10.37,2013-03-27 03:59:00,